sensor_id;sensor_type;location;lat;lon;timestamp;P1;durP1;ratioP1;P2;durP2;ratioP2
3949;SDS011;53057;50.988;6.314;2024-02-21T00:01:07;32.43;;;13.30;;
3949;SDS011;53057;50.988;6.314;2024-02-21T00:03:35;34.23;;;13.10;;
3949;SDS011;53057;50.988;6.314;2024-02-21T00:06:02;50.77;;;15.77;;
3949;SDS011;53057;50.988;6.314;2024-02-21T00:08:29;36.77;;;14.37;;
3949;SDS011;53057;50.988;6.314;2024-02-21T00:10:56;45.67;;;17.10;;
3949;SDS011;53057;50.988;6.314;2024-02-21T00:13:23;26.50;;;12.97;;
3949;SDS011;53057;50.988;6.314;2024-02-21T00:15:50;35.70;;;13.13;;
3949;SDS011;53057;50.988;6.314;2024-02-21T00:18:17;39.77;;;16.67;;
3949;SDS011;53057;50.988;6.314;2024-02-21T00:20:44;39.80;;;15.00;;
3949;SDS011;53057;50.988;6.314;2024-02-21T00:23:11;47.90;;;13.63;;
3949;SDS011;53057;50.988;6.314;2024-02-21T00:25:38;30.83;;;13.00;;
3949;SDS011;53057;50.988;6.314;2024-02-21T00:28:06;23.57;;;10.83;;
3949;SDS011;53057;50.988;6.314;2024-02-21T00:30:33;40.30;;;14.90;;
3949;SDS011;53057;50.988;6.314;2024-02-21T00:33:00;39.27;;;15.80;;
3949;SDS011;53057;50.988;6.314;2024-02-21T00:35:27;59.10;;;17.43;;
3949;SDS011;53057;50.988;6.314;2024-02-21T00:37:55;26.97;;;12.33;;
3949;SDS011;53057;50.988;6.314;2024-02-21T00:40:23;30.47;;;13.53;;
3949;SDS011;53057;50.988;6.314;2024-02-21T00:42:51;33.77;;;13.70;;
3949;SDS011;53057;50.988;6.314;2024-02-21T00:45:18;27.80;;;14.67;;
3949;SDS011;53057;50.988;6.314;2024-02-21T00:47:46;42.70;;;14.77;;
3949;SDS011;53057;50.988;6.314;2024-02-21T00:50:13;29.50;;;13.80;;
3949;SDS011;53057;50.988;6.314;2024-02-21T00:52:41;38.57;;;15.83;;
3949;SDS011;53057;50.988;6.314;2024-02-21T00:55:09;45.80;;;15.60;;
3949;SDS011;53057;50.988;6.314;2024-02-21T00:57:36;31.63;;;14.57;;
3949;SDS011;53057;50.988;6.314;2024-02-21T01:00:03;42.10;;;15.37;;
3949;SDS011;53057;50.988;6.314;2024-02-21T01:02:30;31.93;;;14.77;;
3949;SDS011;53057;50.988;6.314;2024-02-21T01:05:00;33.77;;;14.00;;
3949;SDS011;53057;50.988;6.314;2024-02-21T01:07:27;33.77;;;14.60;;
3949;SDS011;53057;50.988;6.314;2024-02-21T01:09:54;28.50;;;13.40;;
3949;SDS011;53057;50.988;6.314;2024-02-21T01:12:20;28.10;;;12.10;;
3949;SDS011;53057;50.988;6.314;2024-02-21T01:14:47;38.33;;;13.80;;
3949;SDS011;53057;50.988;6.314;2024-02-21T01:17:16;37.27;;;14.93;;
3949;SDS011;53057;50.988;6.314;2024-02-21T01:19:45;51.47;;;15.33;;
3949;SDS011;53057;50.988;6.314;2024-02-21T01:22:13;38.20;;;16.33;;
3949;SDS011;53057;50.988;6.314;2024-02-21T01:24:41;48.70;;;17.23;;
3949;SDS011;53057;50.988;6.314;2024-02-21T01:27:09;34.90;;;16.10;;
3949;SDS011;53057;50.988;6.314;2024-02-21T01:29:37;39.63;;;13.90;;
3949;SDS011;53057;50.988;6.314;2024-02-21T01:32:04;33.87;;;15.50;;
3949;SDS011;53057;50.988;6.314;2024-02-21T01:34:32;38.43;;;15.70;;
3949;SDS011;53057;50.988;6.314;2024-02-21T01:36:59;29.73;;;12.80;;
3949;SDS011;53057;50.988;6.314;2024-02-21T01:39:26;38.10;;;16.47;;
3949;SDS011;53057;50.988;6.314;2024-02-21T01:41:54;43.60;;;15.87;;
3949;SDS011;53057;50.988;6.314;2024-02-21T01:44:22;31.83;;;13.07;;
3949;SDS011;53057;50.988;6.314;2024-02-21T01:46:50;42.20;;;17.20;;
3949;SDS011;53057;50.988;6.314;2024-02-21T01:49:19;37.00;;;15.27;;
3949;SDS011;53057;50.988;6.314;2024-02-21T01:51:47;32.33;;;14.43;;
3949;SDS011;53057;50.988;6.314;2024-02-21T01:54:14;53.10;;;16.93;;
3949;SDS011;53057;50.988;6.314;2024-02-21T01:56:42;21.40;;;11.37;;
3949;SDS011;53057;50.988;6.314;2024-02-21T01:59:10;29.67;;;14.20;;
3949;SDS011;53057;50.988;6.314;2024-02-21T02:01:38;35.07;;;15.93;;
3949;SDS011;53057;50.988;6.314;2024-02-21T02:04:06;29.47;;;12.13;;
3949;SDS011;53057;50.988;6.314;2024-02-21T02:06:33;26.33;;;11.90;;
3949;SDS011;53057;50.988;6.314;2024-02-21T02:09:00;33.07;;;14.17;;
3949;SDS011;53057;50.988;6.314;2024-02-21T02:11:28;28.37;;;8.77;;
3949;SDS011;53057;50.988;6.314;2024-02-21T02:13:55;34.50;;;15.10;;
3949;SDS011;53057;50.988;6.314;2024-02-21T02:16:22;20.70;;;9.30;;
3949;SDS011;53057;50.988;6.314;2024-02-21T02:18:50;23.93;;;12.27;;
3949;SDS011;53057;50.988;6.314;2024-02-21T02:21:28;29.17;;;12.97;;
3949;SDS011;53057;50.988;6.314;2024-02-21T02:23:56;21.20;;;12.73;;
3949;SDS011;53057;50.988;6.314;2024-02-21T02:26:23;26.90;;;12.27;;
3949;SDS011;53057;50.988;6.314;2024-02-21T02:28:51;31.47;;;13.50;;
3949;SDS011;53057;50.988;6.314;2024-02-21T02:31:18;39.50;;;15.37;;
3949;SDS011;53057;50.988;6.314;2024-02-21T02:33:52;37.47;;;13.27;;
3949;SDS011;53057;50.988;6.314;2024-02-21T02:36:20;21.20;;;12.13;;
3949;SDS011;53057;50.988;6.314;2024-02-21T02:38:47;29.27;;;13.97;;
3949;SDS011;53057;50.988;6.314;2024-02-21T02:41:15;27.03;;;13.47;;
3949;SDS011;53057;50.988;6.314;2024-02-21T02:43:43;25.67;;;9.70;;
3949;SDS011;53057;50.988;6.314;2024-02-21T02:46:09;37.10;;;12.73;;
3949;SDS011;53057;50.988;6.314;2024-02-21T02:48:36;26.13;;;12.27;;
3949;SDS011;53057;50.988;6.314;2024-02-21T02:51:05;31.07;;;13.40;;
3949;SDS011;53057;50.988;6.314;2024-02-21T02:53:31;26.00;;;10.57;;
3949;SDS011;53057;50.988;6.314;2024-02-21T02:55:58;32.57;;;11.33;;
3949;SDS011;53057;50.988;6.314;2024-02-21T02:58:25;14.80;;;10.17;;
3949;SDS011;53057;50.988;6.314;2024-02-21T03:00:52;32.90;;;10.90;;
3949;SDS011;53057;50.988;6.314;2024-02-21T03:03:19;29.73;;;11.90;;
3949;SDS011;53057;50.988;6.314;2024-02-21T03:05:45;36.30;;;13.10;;
3949;SDS011;53057;50.988;6.314;2024-02-21T03:08:12;21.57;;;11.40;;
3949;SDS011;53057;50.988;6.314;2024-02-21T03:10:39;17.93;;;11.03;;
3949;SDS011;53057;50.988;6.314;2024-02-21T03:13:07;25.17;;;11.97;;
3949;SDS011;53057;50.988;6.314;2024-02-21T03:15:34;32.03;;;13.60;;
3949;SDS011;53057;50.988;6.314;2024-02-21T03:18:01;28.00;;;12.13;;
3949;SDS011;53057;50.988;6.314;2024-02-21T03:20:28;31.00;;;13.30;;
3949;SDS011;53057;50.988;6.314;2024-02-21T03:22:55;30.77;;;11.10;;
3949;SDS011;53057;50.988;6.314;2024-02-21T03:25:22;26.50;;;12.40;;
3949;SDS011;53057;50.988;6.314;2024-02-21T03:27:49;21.40;;;10.40;;
3949;SDS011;53057;50.988;6.314;2024-02-21T03:30:16;26.80;;;11.50;;
3949;SDS011;53057;50.988;6.314;2024-02-21T03:32:43;29.50;;;12.00;;
3949;SDS011;53057;50.988;6.314;2024-02-21T03:35:10;34.57;;;12.27;;
3949;SDS011;53057;50.988;6.314;2024-02-21T03:37:37;35.93;;;14.13;;
3949;SDS011;53057;50.988;6.314;2024-02-21T03:40:06;26.93;;;10.93;;
3949;SDS011;53057;50.988;6.314;2024-02-21T03:42:33;37.33;;;12.43;;
3949;SDS011;53057;50.988;6.314;2024-02-21T03:45:00;28.07;;;12.53;;
3949;SDS011;53057;50.988;6.314;2024-02-21T03:47:27;31.53;;;13.60;;
3949;SDS011;53057;50.988;6.314;2024-02-21T03:49:54;31.50;;;12.83;;
3949;SDS011;53057;50.988;6.314;2024-02-21T03:52:22;27.90;;;11.57;;
3949;SDS011;53057;50.988;6.314;2024-02-21T03:54:49;25.30;;;12.03;;
3949;SDS011;53057;50.988;6.314;2024-02-21T03:57:16;33.97;;;13.13;;
3949;SDS011;53057;50.988;6.314;2024-02-21T03:59:44;33.70;;;14.20;;
3949;SDS011;53057;50.988;6.314;2024-02-21T04:02:10;25.13;;;12.03;;
3949;SDS011;53057;50.988;6.314;2024-02-21T04:04:37;28.87;;;13.13;;
3949;SDS011;53057;50.988;6.314;2024-02-21T04:07:04;36.77;;;14.40;;
3949;SDS011;53057;50.988;6.314;2024-02-21T04:09:38;35.13;;;14.20;;
3949;SDS011;53057;50.988;6.314;2024-02-21T04:12:04;44.80;;;13.80;;
3949;SDS011;53057;50.988;6.314;2024-02-21T04:14:33;33.10;;;13.20;;
3949;SDS011;53057;50.988;6.314;2024-02-21T04:17:02;38.93;;;13.73;;
3949;SDS011;53057;50.988;6.314;2024-02-21T04:19:30;32.10;;;13.17;;
3949;SDS011;53057;50.988;6.314;2024-02-21T04:21:58;25.97;;;12.50;;
3949;SDS011;53057;50.988;6.314;2024-02-21T04:24:24;33.50;;;14.07;;
3949;SDS011;53057;50.988;6.314;2024-02-21T04:26:51;44.13;;;13.23;;
3949;SDS011;53057;50.988;6.314;2024-02-21T04:29:19;27.50;;;12.10;;
3949;SDS011;53057;50.988;6.314;2024-02-21T04:31:47;34.93;;;13.10;;
3949;SDS011;53057;50.988;6.314;2024-02-21T04:34:14;32.07;;;11.90;;
3949;SDS011;53057;50.988;6.314;2024-02-21T04:36:41;30.50;;;11.57;;
3949;SDS011;53057;50.988;6.314;2024-02-21T04:39:08;28.47;;;12.67;;
3949;SDS011;53057;50.988;6.314;2024-02-21T04:41:35;20.83;;;9.90;;
3949;SDS011;53057;50.988;6.314;2024-02-21T04:44:02;23.60;;;10.30;;
3949;SDS011;53057;50.988;6.314;2024-02-21T04:46:31;29.20;;;11.57;;
3949;SDS011;53057;50.988;6.314;2024-02-21T04:49:00;26.50;;;11.77;;
3949;SDS011;53057;50.988;6.314;2024-02-21T04:51:27;27.40;;;11.10;;
3949;SDS011;53057;50.988;6.314;2024-02-21T04:53:55;28.20;;;12.40;;
3949;SDS011;53057;50.988;6.314;2024-02-21T04:56:22;28.00;;;11.70;;
3949;SDS011;53057;50.988;6.314;2024-02-21T04:58:50;31.33;;;12.27;;
3949;SDS011;53057;50.988;6.314;2024-02-21T05:01:17;34.97;;;11.40;;
3949;SDS011;53057;50.988;6.314;2024-02-21T05:03:45;30.77;;;12.30;;
3949;SDS011;53057;50.988;6.314;2024-02-21T05:06:12;26.13;;;13.10;;
3949;SDS011;53057;50.988;6.314;2024-02-21T05:08:39;19.90;;;9.43;;
3949;SDS011;53057;50.988;6.314;2024-02-21T05:11:06;25.07;;;10.20;;
3949;SDS011;53057;50.988;6.314;2024-02-21T05:13:35;25.53;;;11.13;;
3949;SDS011;53057;50.988;6.314;2024-02-21T05:16:02;18.00;;;8.70;;
3949;SDS011;53057;50.988;6.314;2024-02-21T05:18:29;9.77;;;5.60;;
3949;SDS011;53057;50.988;6.314;2024-02-21T05:20:56;24.00;;;11.33;;
3949;SDS011;53057;50.988;6.314;2024-02-21T05:23:24;25.23;;;10.53;;
3949;SDS011;53057;50.988;6.314;2024-02-21T05:25:52;16.00;;;8.73;;
3949;SDS011;53057;50.988;6.314;2024-02-21T05:28:19;22.87;;;9.70;;
3949;SDS011;53057;50.988;6.314;2024-02-21T05:30:50;23.87;;;10.30;;
3949;SDS011;53057;50.988;6.314;2024-02-21T05:33:17;32.60;;;11.10;;
3949;SDS011;53057;50.988;6.314;2024-02-21T05:35:49;22.53;;;8.53;;
3949;SDS011;53057;50.988;6.314;2024-02-21T05:38:18;20.80;;;9.23;;
3949;SDS011;53057;50.988;6.314;2024-02-21T05:40:45;27.83;;;10.93;;
3949;SDS011;53057;50.988;6.314;2024-02-21T05:43:13;26.43;;;9.30;;
3949;SDS011;53057;50.988;6.314;2024-02-21T05:45:40;21.13;;;8.73;;
3949;SDS011;53057;50.988;6.314;2024-02-21T05:48:07;22.57;;;7.80;;
3949;SDS011;53057;50.988;6.314;2024-02-21T05:50:35;14.77;;;6.77;;
3949;SDS011;53057;50.988;6.314;2024-02-21T05:53:04;13.43;;;7.33;;
3949;SDS011;53057;50.988;6.314;2024-02-21T05:55:32;18.43;;;8.47;;
3949;SDS011;53057;50.988;6.314;2024-02-21T05:57:58;13.80;;;6.87;;
3949;SDS011;53057;50.988;6.314;2024-02-21T06:00:26;30.70;;;8.30;;
3949;SDS011;53057;50.988;6.314;2024-02-21T06:02:53;20.67;;;6.40;;
3949;SDS011;53057;50.988;6.314;2024-02-21T06:05:22;18.83;;;7.30;;
3949;SDS011;53057;50.988;6.314;2024-02-21T06:07:50;22.00;;;8.20;;
3949;SDS011;53057;50.988;6.314;2024-02-21T06:10:17;18.83;;;8.27;;
3949;SDS011;53057;50.988;6.314;2024-02-21T06:12:44;14.57;;;6.53;;
3949;SDS011;53057;50.988;6.314;2024-02-21T06:15:11;24.57;;;9.73;;
3949;SDS011;53057;50.988;6.314;2024-02-21T06:17:38;20.37;;;9.00;;
3949;SDS011;53057;50.988;6.314;2024-02-21T06:20:06;22.60;;;8.17;;
3949;SDS011;53057;50.988;6.314;2024-02-21T06:22:33;18.80;;;7.53;;
3949;SDS011;53057;50.988;6.314;2024-02-21T06:25:03;19.87;;;9.17;;
3949;SDS011;53057;50.988;6.314;2024-02-21T06:27:31;16.47;;;7.50;;
3949;SDS011;53057;50.988;6.314;2024-02-21T06:29:59;35.00;;;8.80;;
3949;SDS011;53057;50.988;6.314;2024-02-21T06:32:26;16.93;;;8.73;;
3949;SDS011;53057;50.988;6.314;2024-02-21T06:34:54;22.20;;;7.63;;
3949;SDS011;53057;50.988;6.314;2024-02-21T06:37:21;22.33;;;9.37;;
3949;SDS011;53057;50.988;6.314;2024-02-21T06:39:49;31.93;;;9.63;;
3949;SDS011;53057;50.988;6.314;2024-02-21T06:42:16;17.10;;;7.43;;
3949;SDS011;53057;50.988;6.314;2024-02-21T06:44:44;15.73;;;7.87;;
3949;SDS011;53057;50.988;6.314;2024-02-21T06:47:11;12.37;;;6.67;;
3949;SDS011;53057;50.988;6.314;2024-02-21T06:49:39;21.40;;;7.77;;
3949;SDS011;53057;50.988;6.314;2024-02-21T06:52:06;21.80;;;7.40;;
3949;SDS011;53057;50.988;6.314;2024-02-21T06:54:34;7.90;;;4.83;;
3949;SDS011;53057;50.988;6.314;2024-02-21T06:57:02;17.93;;;7.70;;
3949;SDS011;53057;50.988;6.314;2024-02-21T07:02:22;17.47;;;6.03;;
3949;SDS011;53057;50.988;6.314;2024-02-21T07:04:49;18.17;;;7.00;;
3949;SDS011;53057;50.988;6.314;2024-02-21T07:07:17;8.50;;;3.10;;
3949;SDS011;53057;50.988;6.314;2024-02-21T07:09:44;28.33;;;6.30;;
3949;SDS011;53057;50.988;6.314;2024-02-21T07:12:13;25.83;;;5.60;;
3949;SDS011;53057;50.988;6.314;2024-02-21T07:14:41;21.10;;;7.10;;
3949;SDS011;53057;50.988;6.314;2024-02-21T07:17:08;19.00;;;5.97;;
3949;SDS011;53057;50.988;6.314;2024-02-21T07:19:35;17.90;;;7.13;;
3949;SDS011;53057;50.988;6.314;2024-02-21T07:22:02;13.70;;;5.80;;
3949;SDS011;53057;50.988;6.314;2024-02-21T07:24:29;41.67;;;9.17;;
3949;SDS011;53057;50.988;6.314;2024-02-21T07:26:59;20.27;;;8.80;;
3949;SDS011;53057;50.988;6.314;2024-02-21T07:29:31;22.60;;;9.80;;
3949;SDS011;53057;50.988;6.314;2024-02-21T07:31:59;17.10;;;8.87;;
3949;SDS011;53057;50.988;6.314;2024-02-21T07:34:27;22.90;;;9.57;;
3949;SDS011;53057;50.988;6.314;2024-02-21T07:36:55;38.80;;;10.03;;
3949;SDS011;53057;50.988;6.314;2024-02-21T07:39:23;19.00;;;8.00;;
3949;SDS011;53057;50.988;6.314;2024-02-21T07:41:50;22.57;;;9.57;;
3949;SDS011;53057;50.988;6.314;2024-02-21T07:44:18;15.67;;;9.97;;
3949;SDS011;53057;50.988;6.314;2024-02-21T07:46:46;13.83;;;5.70;;
3949;SDS011;53057;50.988;6.314;2024-02-21T07:49:13;23.60;;;9.00;;
3949;SDS011;53057;50.988;6.314;2024-02-21T07:51:40;15.40;;;6.57;;
3949;SDS011;53057;50.988;6.314;2024-02-21T07:54:09;8.50;;;3.73;;
3949;SDS011;53057;50.988;6.314;2024-02-21T07:56:42;7.73;;;4.53;;
3949;SDS011;53057;50.988;6.314;2024-02-21T07:59:09;9.53;;;4.77;;
3949;SDS011;53057;50.988;6.314;2024-02-21T08:01:36;15.73;;;7.13;;
3949;SDS011;53057;50.988;6.314;2024-02-21T08:04:03;18.97;;;5.90;;
3949;SDS011;53057;50.988;6.314;2024-02-21T08:06:31;24.27;;;6.90;;
3949;SDS011;53057;50.988;6.314;2024-02-21T08:08:58;8.00;;;4.77;;
3949;SDS011;53057;50.988;6.314;2024-02-21T08:11:27;5.77;;;3.00;;
3949;SDS011;53057;50.988;6.314;2024-02-21T08:13:54;8.13;;;3.50;;
3949;SDS011;53057;50.988;6.314;2024-02-21T08:16:21;7.17;;;3.97;;
3949;SDS011;53057;50.988;6.314;2024-02-21T08:18:49;17.20;;;5.53;;
3949;SDS011;53057;50.988;6.314;2024-02-21T08:21:17;7.07;;;3.03;;
3949;SDS011;53057;50.988;6.314;2024-02-21T08:23:44;6.87;;;3.20;;
3949;SDS011;53057;50.988;6.314;2024-02-21T08:26:11;3.53;;;2.30;;
3949;SDS011;53057;50.988;6.314;2024-02-21T08:28:39;15.30;;;5.30;;
3949;SDS011;53057;50.988;6.314;2024-02-21T08:31:07;8.77;;;4.53;;
3949;SDS011;53057;50.988;6.314;2024-02-21T08:33:35;24.57;;;6.10;;
3949;SDS011;53057;50.988;6.314;2024-02-21T08:36:03;13.00;;;5.17;;
3949;SDS011;53057;50.988;6.314;2024-02-21T08:38:30;9.50;;;4.53;;
3949;SDS011;53057;50.988;6.314;2024-02-21T08:40:57;17.90;;;3.63;;
3949;SDS011;53057;50.988;6.314;2024-02-21T08:43:26;26.27;;;6.10;;
3949;SDS011;53057;50.988;6.314;2024-02-21T08:45:53;8.47;;;3.30;;
3949;SDS011;53057;50.988;6.314;2024-02-21T08:48:21;6.40;;;2.60;;
3949;SDS011;53057;50.988;6.314;2024-02-21T08:50:48;10.10;;;3.57;;
3949;SDS011;53057;50.988;6.314;2024-02-21T08:53:16;8.43;;;4.00;;
3949;SDS011;53057;50.988;6.314;2024-02-21T08:55:44;9.50;;;2.70;;
3949;SDS011;53057;50.988;6.314;2024-02-21T08:58:12;15.00;;;5.70;;
3949;SDS011;53057;50.988;6.314;2024-02-21T09:00:44;1.93;;;1.50;;
3949;SDS011;53057;50.988;6.314;2024-02-21T09:03:11;4.77;;;2.87;;
3949;SDS011;53057;50.988;6.314;2024-02-21T09:05:38;12.20;;;4.83;;
3949;SDS011;53057;50.988;6.314;2024-02-21T09:08:06;3.03;;;2.33;;
3949;SDS011;53057;50.988;6.314;2024-02-21T09:10:34;11.57;;;3.97;;
3949;SDS011;53057;50.988;6.314;2024-02-21T09:13:02;6.33;;;2.30;;
3949;SDS011;53057;50.988;6.314;2024-02-21T09:15:30;12.43;;;3.90;;
3949;SDS011;53057;50.988;6.314;2024-02-21T09:18:00;12.70;;;2.30;;
3949;SDS011;53057;50.988;6.314;2024-02-21T09:20:27;5.83;;;2.57;;
3949;SDS011;53057;50.988;6.314;2024-02-21T09:22:56;12.37;;;6.37;;
3949;SDS011;53057;50.988;6.314;2024-02-21T09:25:24;11.63;;;4.70;;
3949;SDS011;53057;50.988;6.314;2024-02-21T09:27:50;4.13;;;1.50;;
3949;SDS011;53057;50.988;6.314;2024-02-21T09:30:18;15.23;;;5.60;;
3949;SDS011;53057;50.988;6.314;2024-02-21T09:32:46;11.57;;;3.47;;
3949;SDS011;53057;50.988;6.314;2024-02-21T09:35:14;5.20;;;3.57;;
3949;SDS011;53057;50.988;6.314;2024-02-21T09:37:42;6.77;;;3.47;;
3949;SDS011;53057;50.988;6.314;2024-02-21T09:40:10;3.57;;;1.97;;
3949;SDS011;53057;50.988;6.314;2024-02-21T09:42:39;2.97;;;2.23;;
3949;SDS011;53057;50.988;6.314;2024-02-21T09:45:23;4.60;;;2.37;;
3949;SDS011;53057;50.988;6.314;2024-02-21T09:50:35;12.33;;;4.10;;
3949;SDS011;53057;50.988;6.314;2024-02-21T09:53:03;24.20;;;3.20;;
3949;SDS011;53057;50.988;6.314;2024-02-21T09:55:33;7.83;;;4.20;;
3949;SDS011;53057;50.988;6.314;2024-02-21T09:58:01;3.87;;;3.27;;
3949;SDS011;53057;50.988;6.314;2024-02-21T10:00:31;10.30;;;3.47;;
3949;SDS011;53057;50.988;6.314;2024-02-21T10:02:59;13.10;;;5.03;;
3949;SDS011;53057;50.988;6.314;2024-02-21T10:05:26;7.77;;;2.67;;
3949;SDS011;53057;50.988;6.314;2024-02-21T10:07:55;7.03;;;2.47;;
3949;SDS011;53057;50.988;6.314;2024-02-21T10:10:22;10.00;;;4.67;;
3949;SDS011;53057;50.988;6.314;2024-02-21T10:12:52;3.03;;;1.67;;
3949;SDS011;53057;50.988;6.314;2024-02-21T10:15:22;6.93;;;4.30;;
3949;SDS011;53057;50.988;6.314;2024-02-21T10:18:00;9.20;;;4.00;;
3949;SDS011;53057;50.988;6.314;2024-02-21T10:20:28;13.83;;;3.73;;
3949;SDS011;53057;50.988;6.314;2024-02-21T10:23:02;16.53;;;7.00;;
3949;SDS011;53057;50.988;6.314;2024-02-21T10:25:30;5.70;;;3.87;;
3949;SDS011;53057;50.988;6.314;2024-02-21T10:27:58;6.30;;;2.93;;
3949;SDS011;53057;50.988;6.314;2024-02-21T10:30:25;15.10;;;6.77;;
3949;SDS011;53057;50.988;6.314;2024-02-21T10:32:53;11.20;;;3.20;;
3949;SDS011;53057;50.988;6.314;2024-02-21T10:35:27;12.17;;;4.50;;
3949;SDS011;53057;50.988;6.314;2024-02-21T10:37:58;14.80;;;7.90;;
3949;SDS011;53057;50.988;6.314;2024-02-21T10:40:26;8.40;;;2.90;;
3949;SDS011;53057;50.988;6.314;2024-02-21T10:43:01;10.33;;;4.13;;
3949;SDS011;53057;50.988;6.314;2024-02-21T10:45:29;21.10;;;10.10;;
3949;SDS011;53057;50.988;6.314;2024-02-21T10:48:01;16.40;;;8.17;;
3949;SDS011;53057;50.988;6.314;2024-02-21T10:50:35;59.70;;;26.03;;
3949;SDS011;53057;50.988;6.314;2024-02-21T10:53:09;17.70;;;6.90;;
3949;SDS011;53057;50.988;6.314;2024-02-21T10:55:44;17.07;;;8.33;;
3949;SDS011;53057;50.988;6.314;2024-02-21T10:58:15;10.67;;;7.10;;
3949;SDS011;53057;50.988;6.314;2024-02-21T11:00:43;7.77;;;4.13;;
3949;SDS011;53057;50.988;6.314;2024-02-21T11:03:10;29.43;;;6.17;;
3949;SDS011;53057;50.988;6.314;2024-02-21T11:05:38;8.30;;;5.20;;
3949;SDS011;53057;50.988;6.314;2024-02-21T11:08:05;11.50;;;5.63;;
3949;SDS011;53057;50.988;6.314;2024-02-21T11:10:36;13.13;;;6.37;;
3949;SDS011;53057;50.988;6.314;2024-02-21T11:15:34;27.03;;;13.20;;
3949;SDS011;53057;50.988;6.314;2024-02-21T11:18:02;18.40;;;8.57;;
3949;SDS011;53057;50.988;6.314;2024-02-21T11:20:37;19.83;;;8.70;;
3949;SDS011;53057;50.988;6.314;2024-02-21T11:23:05;22.17;;;7.83;;
3949;SDS011;53057;50.988;6.314;2024-02-21T11:25:33;21.73;;;7.00;;
3949;SDS011;53057;50.988;6.314;2024-02-21T11:28:04;15.60;;;6.13;;
3949;SDS011;53057;50.988;6.314;2024-02-21T11:30:37;22.40;;;9.20;;
3949;SDS011;53057;50.988;6.314;2024-02-21T11:33:06;21.33;;;9.50;;
3949;SDS011;53057;50.988;6.314;2024-02-21T11:35:34;23.63;;;11.70;;
3949;SDS011;53057;50.988;6.314;2024-02-21T11:38:11;19.20;;;7.20;;
3949;SDS011;53057;50.988;6.314;2024-02-21T11:40:46;27.33;;;4.03;;
3949;SDS011;53057;50.988;6.314;2024-02-21T11:43:14;18.83;;;6.67;;
3949;SDS011;53057;50.988;6.314;2024-02-21T11:45:41;8.67;;;4.07;;
3949;SDS011;53057;50.988;6.314;2024-02-21T11:48:08;4.60;;;3.50;;
3949;SDS011;53057;50.988;6.314;2024-02-21T11:50:36;9.70;;;3.27;;
3949;SDS011;53057;50.988;6.314;2024-02-21T11:53:09;16.93;;;6.13;;
3949;SDS011;53057;50.988;6.314;2024-02-21T11:55:37;19.57;;;8.57;;
3949;SDS011;53057;50.988;6.314;2024-02-21T11:58:04;25.17;;;9.57;;
3949;SDS011;53057;50.988;6.314;2024-02-21T12:00:32;19.63;;;7.97;;
3949;SDS011;53057;50.988;6.314;2024-02-21T12:03:00;33.37;;;15.80;;
3949;SDS011;53057;50.988;6.314;2024-02-21T12:05:30;25.70;;;11.93;;
3949;SDS011;53057;50.988;6.314;2024-02-21T12:07:58;23.23;;;8.10;;
3949;SDS011;53057;50.988;6.314;2024-02-21T12:10:26;10.53;;;7.13;;
3949;SDS011;53057;50.988;6.314;2024-02-21T12:13:07;17.57;;;6.47;;
3949;SDS011;53057;50.988;6.314;2024-02-21T12:15:35;19.23;;;8.20;;
3949;SDS011;53057;50.988;6.314;2024-02-21T12:18:03;19.27;;;9.63;;
3949;SDS011;53057;50.988;6.314;2024-02-21T12:20:30;18.77;;;6.43;;
3949;SDS011;53057;50.988;6.314;2024-02-21T12:23:00;14.17;;;5.20;;
3949;SDS011;53057;50.988;6.314;2024-02-21T12:25:28;11.43;;;4.27;;
3949;SDS011;53057;50.988;6.314;2024-02-21T12:27:55;11.67;;;4.90;;
3949;SDS011;53057;50.988;6.314;2024-02-21T12:30:23;26.07;;;8.90;;
3949;SDS011;53057;50.988;6.314;2024-02-21T12:32:50;16.07;;;6.70;;
3949;SDS011;53057;50.988;6.314;2024-02-21T12:35:19;46.80;;;18.30;;
3949;SDS011;53057;50.988;6.314;2024-02-21T12:37:46;7.50;;;5.07;;
3949;SDS011;53057;50.988;6.314;2024-02-21T12:40:14;14.20;;;5.60;;
3949;SDS011;53057;50.988;6.314;2024-02-21T12:42:42;16.37;;;9.20;;
3949;SDS011;53057;50.988;6.314;2024-02-21T12:45:10;13.30;;;4.87;;
3949;SDS011;53057;50.988;6.314;2024-02-21T12:47:37;13.33;;;5.53;;
3949;SDS011;53057;50.988;6.314;2024-02-21T12:50:07;8.40;;;4.10;;
3949;SDS011;53057;50.988;6.314;2024-02-21T12:52:35;10.80;;;5.33;;
3949;SDS011;53057;50.988;6.314;2024-02-21T12:55:03;8.30;;;4.00;;
3949;SDS011;53057;50.988;6.314;2024-02-21T12:57:30;8.73;;;4.10;;
3949;SDS011;53057;50.988;6.314;2024-02-21T12:59:57;9.33;;;4.10;;
3949;SDS011;53057;50.988;6.314;2024-02-21T13:02:25;16.80;;;3.93;;
3949;SDS011;53057;50.988;6.314;2024-02-21T13:04:52;7.27;;;3.60;;
3949;SDS011;53057;50.988;6.314;2024-02-21T13:07:20;9.17;;;4.03;;
3949;SDS011;53057;50.988;6.314;2024-02-21T13:09:48;9.77;;;4.60;;
3949;SDS011;53057;50.988;6.314;2024-02-21T13:12:16;12.33;;;4.40;;
3949;SDS011;53057;50.988;6.314;2024-02-21T13:14:44;7.10;;;4.30;;
3949;SDS011;53057;50.988;6.314;2024-02-21T13:17:11;18.13;;;5.50;;
3949;SDS011;53057;50.988;6.314;2024-02-21T13:19:39;8.30;;;5.10;;
3949;SDS011;53057;50.988;6.314;2024-02-21T13:22:07;8.20;;;5.47;;
3949;SDS011;53057;50.988;6.314;2024-02-21T13:24:35;6.30;;;5.20;;
3949;SDS011;53057;50.988;6.314;2024-02-21T13:27:02;14.27;;;4.90;;
3949;SDS011;53057;50.988;6.314;2024-02-21T13:29:30;13.90;;;4.77;;
3949;SDS011;53057;50.988;6.314;2024-02-21T13:31:57;10.00;;;3.57;;
3949;SDS011;53057;50.988;6.314;2024-02-21T13:34:24;17.67;;;5.47;;
3949;SDS011;53057;50.988;6.314;2024-02-21T13:36:53;10.90;;;4.53;;
3949;SDS011;53057;50.988;6.314;2024-02-21T13:39:20;11.83;;;4.77;;
3949;SDS011;53057;50.988;6.314;2024-02-21T13:41:47;10.93;;;4.97;;
3949;SDS011;53057;50.988;6.314;2024-02-21T13:44:14;8.60;;;3.80;;
3949;SDS011;53057;50.988;6.314;2024-02-21T13:46:43;12.90;;;4.80;;
3949;SDS011;53057;50.988;6.314;2024-02-21T13:49:11;6.80;;;4.27;;
3949;SDS011;53057;50.988;6.314;2024-02-21T13:51:39;11.80;;;5.27;;
3949;SDS011;53057;50.988;6.314;2024-02-21T13:54:08;14.87;;;4.70;;
3949;SDS011;53057;50.988;6.314;2024-02-21T13:56:37;14.70;;;5.03;;
3949;SDS011;53057;50.988;6.314;2024-02-21T13:59:05;7.07;;;4.40;;
3949;SDS011;53057;50.988;6.314;2024-02-21T14:01:33;20.27;;;5.00;;
3949;SDS011;53057;50.988;6.314;2024-02-21T14:04:01;10.40;;;4.43;;
3949;SDS011;53057;50.988;6.314;2024-02-21T14:06:29;7.03;;;4.00;;
3949;SDS011;53057;50.988;6.314;2024-02-21T14:08:56;12.37;;;5.17;;
3949;SDS011;53057;50.988;6.314;2024-02-21T14:11:23;6.60;;;2.17;;
3949;SDS011;53057;50.988;6.314;2024-02-21T14:13:51;9.63;;;3.07;;
3949;SDS011;53057;50.988;6.314;2024-02-21T14:16:18;5.93;;;2.63;;
3949;SDS011;53057;50.988;6.314;2024-02-21T14:18:46;8.03;;;4.00;;
3949;SDS011;53057;50.988;6.314;2024-02-21T14:21:14;15.07;;;1.80;;
3949;SDS011;53057;50.988;6.314;2024-02-21T14:23:41;2.50;;;1.47;;
3949;SDS011;53057;50.988;6.314;2024-02-21T14:26:08;11.00;;;5.00;;
3949;SDS011;53057;50.988;6.314;2024-02-21T14:28:35;9.17;;;5.63;;
3949;SDS011;53057;50.988;6.314;2024-02-21T14:31:02;14.97;;;6.43;;
3949;SDS011;53057;50.988;6.314;2024-02-21T14:33:30;8.47;;;5.07;;
3949;SDS011;53057;50.988;6.314;2024-02-21T14:35:57;12.13;;;5.93;;
3949;SDS011;53057;50.988;6.314;2024-02-21T14:38:24;6.83;;;3.60;;
3949;SDS011;53057;50.988;6.314;2024-02-21T14:40:51;15.90;;;2.17;;
3949;SDS011;53057;50.988;6.314;2024-02-21T14:43:18;6.00;;;1.87;;
3949;SDS011;53057;50.988;6.314;2024-02-21T14:45:48;3.90;;;2.97;;
3949;SDS011;53057;50.988;6.314;2024-02-21T14:48:15;13.67;;;4.47;;
3949;SDS011;53057;50.988;6.314;2024-02-21T14:50:42;5.90;;;2.70;;
3949;SDS011;53057;50.988;6.314;2024-02-21T14:53:09;6.83;;;2.30;;
3949;SDS011;53057;50.988;6.314;2024-02-21T14:55:38;10.03;;;4.17;;
3949;SDS011;53057;50.988;6.314;2024-02-21T14:58:08;8.83;;;3.30;;